createdAt,value
2024-01-20T00:01:34.849Z,1.16
2024-01-20T00:04:03.421Z,1.19
2024-01-20T00:06:33.051Z,1.14
2024-01-20T00:09:01.216Z,1.13
2024-01-20T00:11:29.356Z,1.14
2024-01-20T00:13:57.491Z,1.12
2024-01-20T00:16:25.475Z,1.07
2024-01-20T00:18:53.395Z,1.10
2024-01-20T00:21:21.527Z,1.12
2024-01-20T00:23:50.812Z,1.11
2024-01-20T00:26:19.034Z,1.11
2024-01-20T00:28:47.114Z,1.09
2024-01-20T00:31:15.180Z,1.10
2024-01-20T00:33:43.190Z,1.04
2024-01-20T00:36:11.208Z,1.05
2024-01-20T00:38:40.268Z,1.11
2024-01-20T00:41:12.623Z,1.38
2024-01-20T00:43:40.521Z,1.52
2024-01-20T00:46:09.037Z,1.58
2024-01-20T00:48:37.028Z,1.69
2024-01-20T00:51:05.136Z,1.58
2024-01-20T00:53:32.996Z,1.55
2024-01-20T00:56:04.634Z,1.55
2024-01-20T00:58:33.732Z,1.64
2024-01-20T01:01:01.607Z,1.58
2024-01-20T01:03:43.950Z,1.81
2024-01-20T01:06:11.992Z,1.76
2024-01-20T01:08:40.344Z,1.61
2024-01-20T01:11:09.313Z,1.41
2024-01-20T01:13:40.413Z,1.36
2024-01-20T01:16:11.215Z,1.28
2024-01-20T01:18:39.077Z,1.21
2024-01-20T01:21:06.905Z,1.20
2024-01-20T01:23:34.773Z,1.13
2024-01-20T01:26:02.743Z,1.05
2024-01-20T01:28:30.499Z,1.04
2024-01-20T01:30:59.587Z,1.05
2024-01-20T01:33:27.366Z,1.07
2024-01-20T01:35:55.120Z,1.05
2024-01-20T01:38:22.944Z,0.95
2024-01-20T01:40:50.799Z,1.01
2024-01-20T01:43:18.603Z,1.07
2024-01-20T01:45:46.442Z,1.11
2024-01-20T01:48:15.882Z,1.13
2024-01-20T01:50:43.768Z,1.11
2024-01-20T01:53:13.464Z,0.99
2024-01-20T01:55:44.760Z,0.90
2024-01-20T01:58:12.655Z,0.84
2024-01-20T02:00:40.442Z,0.84
2024-01-20T02:03:11.067Z,0.96
2024-01-20T02:05:40.367Z,1.01
2024-01-20T02:08:09.092Z,0.94
2024-01-20T02:10:37.778Z,0.84
2024-01-20T02:13:08.832Z,0.79
2024-01-20T02:15:38.587Z,0.75
2024-01-20T02:18:06.606Z,0.74
2024-01-20T02:20:34.463Z,0.76
2024-01-20T02:23:03.806Z,0.73
2024-01-20T02:25:31.636Z,0.70
2024-01-20T02:27:59.422Z,0.65
2024-01-20T02:30:27.416Z,0.61
2024-01-20T02:32:55.346Z,0.59
2024-01-20T02:35:22.448Z,0.61
2024-01-20T02:37:50.262Z,0.61
2024-01-20T02:40:19.507Z,0.63
2024-01-20T02:42:47.240Z,0.60
2024-01-20T02:45:15.069Z,0.55
2024-01-20T02:47:42.938Z,0.55
2024-01-20T02:50:11.038Z,0.55
2024-01-20T02:52:38.771Z,0.47
2024-01-20T02:55:10.027Z,0.51
2024-01-20T02:57:39.198Z,0.51
2024-01-20T03:00:11.215Z,0.49
2024-01-20T03:02:39.041Z,0.51
2024-01-20T03:05:10.108Z,0.49
2024-01-20T03:07:37.954Z,0.49
2024-01-20T03:10:06.903Z,0.43
2024-01-20T03:12:34.953Z,0.42
2024-01-20T03:15:04.748Z,0.35
2024-01-20T03:17:32.660Z,0.36
2024-01-20T03:20:00.516Z,0.36
2024-01-20T03:22:28.337Z,0.34
2024-01-20T03:24:56.077Z,0.36
2024-01-20T03:27:23.948Z,0.36
2024-01-20T03:29:51.984Z,0.38
2024-01-20T03:32:21.081Z,0.35
2024-01-20T03:34:49.115Z,0.38
2024-01-20T03:37:16.894Z,0.36
2024-01-20T03:39:44.688Z,0.36
2024-01-20T03:42:12.613Z,0.34
2024-01-20T03:44:40.435Z,0.30
2024-01-20T03:47:08.640Z,0.30
2024-01-20T03:49:37.805Z,0.29
2024-01-20T03:52:06.001Z,0.28
2024-01-20T03:54:33.865Z,0.22
2024-01-20T03:57:01.720Z,0.16
2024-01-20T03:59:29.544Z,0.04
2024-01-20T04:01:57.260Z,0.00
2024-01-20T04:04:25.123Z,-0.05
2024-01-20T04:06:54.892Z,-0.09
2024-01-20T04:09:22.774Z,-0.05
2024-01-20T04:11:50.778Z,-0.07
2024-01-20T04:14:18.606Z,-0.11
2024-01-20T04:16:46.297Z,-0.12
2024-01-20T04:19:14.128Z,-0.10
2024-01-20T04:21:43.920Z,-0.10
2024-01-20T04:24:12.993Z,-0.10
2024-01-20T04:26:40.853Z,-0.11
2024-01-20T04:29:08.932Z,-0.08
2024-01-20T04:31:36.651Z,-0.05
2024-01-20T04:34:04.452Z,-0.02
2024-01-20T04:36:32.151Z,0.01
2024-01-20T04:38:59.839Z,0.06
2024-01-20T04:41:28.950Z,0.21
2024-01-20T04:43:56.696Z,0.37
2024-01-20T04:46:24.486Z,0.61
2024-01-20T04:48:52.341Z,0.72
2024-01-20T04:51:23.315Z,0.60
2024-01-20T04:53:52.492Z,0.51
2024-01-20T04:56:21.766Z,0.50
2024-01-20T04:58:51.022Z,0.43
2024-01-20T05:01:18.905Z,0.39
2024-01-20T05:03:46.961Z,0.40
2024-01-20T05:06:15.389Z,0.33
2024-01-20T05:08:43.205Z,0.30
2024-01-20T05:11:11.467Z,0.27
2024-01-20T05:13:39.248Z,0.24
2024-01-20T05:16:08.921Z,0.24
2024-01-20T05:18:36.755Z,0.21
2024-01-20T05:21:04.798Z,0.22
2024-01-20T05:23:32.549Z,0.18
2024-01-20T05:26:00.428Z,0.17
2024-01-20T05:28:28.184Z,0.14
2024-01-20T05:30:55.959Z,0.09
2024-01-20T05:33:25.141Z,0.17
2024-01-20T05:35:53.003Z,0.18
2024-01-20T05:38:20.848Z,0.18
2024-01-20T05:40:48.622Z,0.22
2024-01-20T05:43:16.343Z,0.24
2024-01-20T05:45:44.187Z,0.25
2024-01-20T05:48:12.095Z,0.36
2024-01-20T05:50:41.370Z,0.35
2024-01-20T05:53:09.815Z,0.35
2024-01-20T05:55:37.603Z,0.35
2024-01-20T05:58:07.959Z,0.35
2024-01-20T06:00:35.727Z,0.38
2024-01-20T06:03:03.606Z,0.40
2024-01-20T06:05:32.650Z,0.45
2024-01-20T06:08:01.892Z,0.47
2024-01-20T06:10:29.721Z,0.50
2024-01-20T06:12:57.434Z,0.54
2024-01-20T06:15:25.188Z,0.50
2024-01-20T06:17:53.022Z,0.49
2024-01-20T06:20:20.834Z,0.47
2024-01-20T06:22:48.524Z,0.48
2024-01-20T06:25:17.616Z,0.47
2024-01-20T06:27:45.314Z,0.46
2024-01-20T06:30:14.175Z,0.42
2024-01-20T06:32:42.006Z,0.36
2024-01-20T06:35:15.715Z,0.33
2024-01-20T06:37:42.477Z,0.29
2024-01-20T06:40:10.911Z,0.26
2024-01-20T06:42:40.000Z,0.25
2024-01-20T06:45:10.983Z,0.16
2024-01-20T06:47:39.075Z,0.15
2024-01-20T06:50:09.646Z,0.13
2024-01-20T06:52:37.489Z,0.07
2024-01-20T06:55:06.835Z,0.07
2024-01-20T06:57:34.667Z,0.05
2024-01-20T07:00:04.987Z,0.05
2024-01-20T07:02:34.615Z,-0.02
2024-01-20T07:05:03.431Z,0.05
2024-01-20T07:07:32.689Z,0.03
2024-01-20T07:10:00.535Z,0.01
2024-01-20T07:12:29.670Z,0.00
2024-01-20T07:14:58.589Z,0.03
2024-01-20T07:17:27.727Z,0.04
2024-01-20T07:19:55.592Z,0.03
2024-01-20T07:22:23.617Z,0.03
2024-01-20T07:24:51.522Z,0.03
2024-01-20T07:27:19.431Z,0.00
2024-01-20T07:29:47.184Z,-0.02
2024-01-20T07:32:15.018Z,-0.04
2024-01-20T07:34:44.150Z,-0.02
2024-01-20T07:37:13.355Z,-0.04
2024-01-20T07:39:41.232Z,-0.02
2024-01-20T07:42:09.078Z,-0.02
2024-01-20T07:44:36.814Z,0.03
2024-01-20T07:47:04.986Z,0.02
2024-01-20T07:49:33.212Z,-0.04
2024-01-20T07:52:02.408Z,0.02
2024-01-20T07:54:30.260Z,0.03
2024-01-20T07:56:58.081Z,0.05
2024-01-20T07:59:25.844Z,0.06
2024-01-20T08:01:53.598Z,0.05
2024-01-20T08:04:21.512Z,0.05
2024-01-20T08:06:49.549Z,0.07
2024-01-20T08:09:18.990Z,0.08
2024-01-20T08:11:46.764Z,0.09
2024-01-20T08:14:14.989Z,0.11
2024-01-20T08:16:42.764Z,0.12
2024-01-20T08:19:10.703Z,0.13
2024-01-20T08:21:38.566Z,0.17
2024-01-20T08:24:07.744Z,0.18
2024-01-20T08:26:36.856Z,0.22
2024-01-20T08:29:04.657Z,0.24
2024-01-20T08:31:32.414Z,0.25
2024-01-20T08:34:00.438Z,0.27
2024-01-20T08:36:28.494Z,0.27
2024-01-20T08:38:56.376Z,0.29
2024-01-20T08:41:24.267Z,0.26
2024-01-20T08:43:53.951Z,0.29
2024-01-20T08:46:21.855Z,0.27
2024-01-20T08:48:49.614Z,0.29
2024-01-20T08:51:17.383Z,0.30
2024-01-20T08:53:45.172Z,0.28
2024-01-20T08:56:12.936Z,0.26
2024-01-20T08:58:40.775Z,0.31
2024-01-20T09:01:10.389Z,0.24
2024-01-20T09:03:38.474Z,0.33
2024-01-20T09:06:07.042Z,0.35
2024-01-20T09:08:35.443Z,0.34
2024-01-20T09:11:03.309Z,0.36
2024-01-20T09:13:31.138Z,0.42
2024-01-20T09:15:59.094Z,0.42
2024-01-20T09:18:28.522Z,0.47
2024-01-20T09:20:56.788Z,0.53
2024-01-20T09:23:24.669Z,0.57
2024-01-20T09:25:52.603Z,0.60
2024-01-20T09:28:20.409Z,0.60
2024-01-20T09:30:48.312Z,0.60
2024-01-20T09:33:16.576Z,0.64
2024-01-20T09:35:45.864Z,0.62
2024-01-20T09:38:13.821Z,0.66
2024-01-20T09:40:48.672Z,0.68
2024-01-20T09:43:17.294Z,0.75
2024-01-20T09:45:45.605Z,0.80
2024-01-20T09:48:15.852Z,0.84
2024-01-20T09:50:45.095Z,0.84
2024-01-20T09:53:16.067Z,0.92
2024-01-20T09:55:44.939Z,0.96
2024-01-20T09:58:13.645Z,0.97
2024-01-20T10:00:42.549Z,1.06
2024-01-20T10:03:12.474Z,1.06
2024-01-20T10:05:40.505Z,1.05
2024-01-20T10:08:13.666Z,0.99
2024-01-20T10:10:41.414Z,1.04
2024-01-20T10:13:09.137Z,1.04
2024-01-20T10:15:37.251Z,1.02
2024-01-20T10:18:11.929Z,1.01
2024-01-20T10:20:39.869Z,1.03
2024-01-20T10:23:09.529Z,1.03
2024-01-20T10:25:37.481Z,1.00
2024-01-20T10:28:05.751Z,1.03
2024-01-20T10:30:33.507Z,1.05
2024-01-20T10:35:32.096Z,1.08
2024-01-20T10:38:02.630Z,1.09
2024-01-20T10:40:31.719Z,1.08
2024-01-20T10:43:06.485Z,1.08
2024-01-20T10:45:43.691Z,1.10
2024-01-20T10:48:17.699Z,1.06
2024-01-20T10:50:47.958Z,1.02
2024-01-20T10:53:16.765Z,1.00
2024-01-20T10:55:47.527Z,1.03
2024-01-20T10:58:19.670Z,1.04
2024-01-20T11:00:48.159Z,1.01
2024-01-20T11:03:17.202Z,1.10
2024-01-20T11:05:48.725Z,1.13
2024-01-20T11:08:25.240Z,1.15
2024-01-20T11:10:56.285Z,1.15
2024-01-20T11:13:27.546Z,1.17
2024-01-20T11:15:58.770Z,1.19
2024-01-20T11:18:28.436Z,1.23
2024-01-20T11:21:00.249Z,1.26
2024-01-20T11:23:28.254Z,1.31
2024-01-20T11:25:58.233Z,1.36
2024-01-20T11:28:28.518Z,1.39
2024-01-20T11:30:56.318Z,1.22
2024-01-20T11:33:25.860Z,1.47
2024-01-20T11:35:54.349Z,1.49
2024-01-20T11:38:22.803Z,1.54
2024-01-20T11:41:01.950Z,1.53
2024-01-20T11:43:29.915Z,1.55
2024-01-20T11:45:58.545Z,1.60
2024-01-20T11:48:27.241Z,1.62
2024-01-20T11:50:55.262Z,1.62
2024-01-20T11:53:24.023Z,1.66
2024-01-20T11:55:56.258Z,1.70
2024-01-20T11:58:25.392Z,1.71
2024-01-20T12:00:53.879Z,1.71
2024-01-20T12:03:23.041Z,1.74
2024-01-20T12:05:51.636Z,1.73
2024-01-20T12:08:19.971Z,1.72
2024-01-20T12:10:48.191Z,1.71
2024-01-20T12:13:17.594Z,1.76
2024-01-20T12:15:49.479Z,1.76
2024-01-20T12:18:19.317Z,1.76
2024-01-20T12:20:47.489Z,1.77
2024-01-20T12:23:20.147Z,1.74
2024-01-20T12:25:48.388Z,1.74
2024-01-20T12:28:18.187Z,1.71
2024-01-20T12:30:47.311Z,1.71
2024-01-20T12:33:15.323Z,1.69
2024-01-20T12:35:43.176Z,1.69
2024-01-20T12:38:10.953Z,1.65
2024-01-20T12:40:38.717Z,1.70
2024-01-20T12:43:06.555Z,1.73
2024-01-20T12:45:34.436Z,1.75
2024-01-20T12:48:03.699Z,1.77
2024-01-20T12:50:31.583Z,1.78
2024-01-20T12:52:59.510Z,1.81
2024-01-20T12:55:27.197Z,1.85
2024-01-20T12:57:54.940Z,1.87
2024-01-20T13:00:22.863Z,1.89
2024-01-20T13:02:50.735Z,1.88
2024-01-20T13:05:20.019Z,1.92
2024-01-20T13:07:47.942Z,1.95
2024-01-20T13:10:15.853Z,1.89
2024-01-20T13:12:43.694Z,1.92
2024-01-20T13:15:11.947Z,1.91
2024-01-20T13:17:39.970Z,1.89
2024-01-20T13:20:10.578Z,1.86
2024-01-20T13:22:39.712Z,1.82
2024-01-20T13:25:13.385Z,1.82
2024-01-20T13:27:41.171Z,1.80
2024-01-20T13:30:11.379Z,1.78
2024-01-20T13:32:39.232Z,1.77
2024-01-20T13:35:11.088Z,1.76
2024-01-20T13:37:40.186Z,1.76
2024-01-20T13:40:10.670Z,1.75
2024-01-20T13:42:40.776Z,1.78
2024-01-20T13:45:11.172Z,1.76
2024-01-20T13:47:39.184Z,1.75
2024-01-20T13:50:08.017Z,1.85
2024-01-20T13:52:35.882Z,1.82
2024-01-20T13:55:06.770Z,1.83
2024-01-20T13:57:34.785Z,1.82
2024-01-20T14:00:02.677Z,1.81
2024-01-20T14:02:30.560Z,1.75
2024-01-20T14:04:58.817Z,1.68
2024-01-20T14:07:26.769Z,1.61
2024-01-20T14:09:54.557Z,1.63
2024-01-20T14:12:23.732Z,1.54
2024-01-20T14:14:51.596Z,1.53
2024-01-20T14:17:19.377Z,1.49
2024-01-20T14:19:47.262Z,1.46
2024-01-20T14:22:15.799Z,1.41
2024-01-20T14:24:43.667Z,1.38
2024-01-20T14:27:11.476Z,1.36
2024-01-20T14:29:40.632Z,1.30
2024-01-20T14:32:11.188Z,1.31
2024-01-20T14:34:38.935Z,1.29
2024-01-20T14:37:08.125Z,1.24
2024-01-20T14:39:36.457Z,1.19
2024-01-20T14:42:04.671Z,1.16
2024-01-20T14:44:32.488Z,1.18
2024-01-20T14:47:01.622Z,1.15
2024-01-20T14:49:29.438Z,1.15
2024-01-20T14:51:57.321Z,1.09
2024-01-20T14:54:26.604Z,1.08
2024-01-20T14:56:54.541Z,1.06
2024-01-20T14:59:22.400Z,1.07
2024-01-20T15:01:50.169Z,1.05
2024-01-20T15:04:19.429Z,1.07
2024-01-20T15:06:47.313Z,1.07
2024-01-20T15:09:15.249Z,1.06
2024-01-20T15:11:43.101Z,1.00
2024-01-20T15:14:10.878Z,1.01
2024-01-20T15:16:38.599Z,1.01
2024-01-20T15:19:07.082Z,0.99
2024-01-20T15:21:37.472Z,0.96
2024-01-20T15:24:08.768Z,0.94
2024-01-20T15:26:37.694Z,0.89
2024-01-20T15:29:05.881Z,0.88
2024-01-20T15:31:33.611Z,0.84
2024-01-20T15:34:01.658Z,0.82
2024-01-20T15:36:29.611Z,0.76
2024-01-20T15:38:58.811Z,0.75
2024-01-20T15:41:27.803Z,0.73
2024-01-20T15:43:55.596Z,0.71
2024-01-20T15:46:23.498Z,0.70
2024-01-20T15:48:51.800Z,0.67
2024-01-20T15:51:19.997Z,0.63
2024-01-20T15:53:47.790Z,0.58
2024-01-20T15:56:18.593Z,0.52
2024-01-20T15:58:47.131Z,0.52
2024-01-20T16:01:15.093Z,0.48
2024-01-20T16:03:43.068Z,0.48
2024-01-20T16:06:11.528Z,0.44
2024-01-20T16:08:39.273Z,0.45
2024-01-20T16:11:09.984Z,0.34
2024-01-20T16:13:39.150Z,0.42
2024-01-20T16:16:07.890Z,0.40
2024-01-20T16:18:36.503Z,0.38
2024-01-20T16:21:04.953Z,0.29
2024-01-20T16:23:32.835Z,0.29
2024-01-20T16:26:00.589Z,0.26
2024-01-20T16:28:30.340Z,0.29
2024-01-20T16:31:01.272Z,0.31
2024-01-20T16:33:29.352Z,0.29
2024-01-20T16:35:57.124Z,0.23
2024-01-20T16:38:24.876Z,0.26
2024-01-20T16:40:53.099Z,0.27
2024-01-20T16:43:20.801Z,0.25
2024-01-20T16:45:48.584Z,0.24
2024-01-20T16:48:18.769Z,0.21
2024-01-20T16:50:46.634Z,0.20
2024-01-20T16:53:16.030Z,0.22
2024-01-20T16:55:43.929Z,0.18
2024-01-20T16:58:11.743Z,0.14
2024-01-20T17:00:39.521Z,0.19
2024-01-20T17:03:07.890Z,0.15
2024-01-20T17:05:37.062Z,0.19
2024-01-20T17:08:05.533Z,0.19
2024-01-20T17:10:33.276Z,0.20
2024-01-20T17:13:01.498Z,0.20
2024-01-20T17:15:29.296Z,0.20
2024-01-20T17:17:57.103Z,0.21
2024-01-20T17:20:24.863Z,0.20
2024-01-20T17:22:55.748Z,0.21
2024-01-20T17:25:25.397Z,0.16
2024-01-20T17:27:53.100Z,0.13
2024-01-20T17:30:20.914Z,0.16
2024-01-20T17:32:49.313Z,0.15
2024-01-20T17:35:17.343Z,0.14
2024-01-20T17:37:45.055Z,0.08
2024-01-20T17:40:16.263Z,0.11
2024-01-20T17:42:44.586Z,0.11
2024-01-20T17:45:12.531Z,0.15
2024-01-20T17:47:44.585Z,0.06
2024-01-20T17:50:12.957Z,0.10
2024-01-20T17:52:40.768Z,0.02
2024-01-20T17:55:14.514Z,0.06
2024-01-20T17:57:42.376Z,0.05
2024-01-20T18:00:13.233Z,0.06
2024-01-20T18:02:42.091Z,0.04
2024-01-20T18:05:10.483Z,0.01
2024-01-20T18:07:38.417Z,-0.02
2024-01-20T18:10:10.457Z,-0.06
2024-01-20T18:12:42.690Z,-0.03
2024-01-20T18:15:11.214Z,-0.03
2024-01-20T18:17:39.106Z,-0.10
2024-01-20T18:20:11.710Z,-0.07
2024-01-20T18:22:39.616Z,-0.07
2024-01-20T18:25:08.642Z,-0.08
2024-01-20T18:27:36.490Z,-0.15
2024-01-20T18:30:09.996Z,-0.10
2024-01-20T18:32:37.913Z,-0.10
2024-01-20T18:35:06.472Z,-0.11
2024-01-20T18:37:34.195Z,-0.09
2024-01-20T18:40:01.937Z,-0.09
2024-01-20T18:42:31.301Z,-0.11
2024-01-20T18:44:59.344Z,-0.10
2024-01-20T18:47:28.465Z,-0.14
2024-01-20T18:49:56.357Z,-0.09
2024-01-20T18:52:24.133Z,-0.08
2024-01-20T18:54:54.934Z,-0.16
2024-01-20T18:57:23.389Z,-0.13
2024-01-20T18:59:51.229Z,-0.14
2024-01-20T19:02:19.130Z,-0.29
2024-01-20T19:04:48.461Z,-0.17
2024-01-20T19:07:16.614Z,-0.18
2024-01-20T19:09:44.492Z,-0.18
2024-01-20T19:12:14.520Z,-0.16
2024-01-20T19:14:42.451Z,-0.15
2024-01-20T19:17:16.060Z,-0.13
2024-01-20T19:19:44.595Z,-0.11
2024-01-20T19:22:13.870Z,-0.15
2024-01-20T19:24:41.783Z,-0.10
2024-01-20T19:27:12.495Z,-0.18
2024-01-20T19:29:41.121Z,-0.20
2024-01-20T19:32:09.710Z,-0.15
2024-01-20T19:34:37.639Z,-0.18
2024-01-20T19:37:05.979Z,-0.17
2024-01-20T19:39:35.284Z,-0.16
2024-01-20T19:42:03.027Z,-0.13
2024-01-20T19:44:30.882Z,-0.12
2024-01-20T19:46:58.581Z,-0.15
2024-01-20T19:49:26.595Z,-0.15
2024-01-20T19:51:54.403Z,-0.13
2024-01-20T19:54:22.545Z,-0.13
2024-01-20T19:56:53.498Z,-0.11
2024-01-20T19:59:21.865Z,-0.17
2024-01-20T20:01:50.325Z,-0.11
2024-01-20T20:04:19.364Z,-0.19
2024-01-20T20:06:47.956Z,-0.19
2024-01-20T20:09:17.400Z,-0.14
2024-01-20T20:11:45.513Z,-0.16
2024-01-20T20:14:18.385Z,-0.16
2024-01-20T20:16:46.143Z,-0.20
2024-01-20T20:19:14.148Z,-0.29
2024-01-20T20:21:42.270Z,-0.27
2024-01-20T20:24:14.636Z,-0.30
2024-01-20T20:26:43.949Z,-0.30
2024-01-20T20:29:14.312Z,-0.35
2024-01-20T20:31:42.372Z,-0.36
2024-01-20T20:34:15.024Z,-0.40
2024-01-20T20:36:42.884Z,-0.39
2024-01-20T20:39:10.690Z,-0.47
2024-01-20T20:41:38.640Z,-0.43
2024-01-20T20:44:06.655Z,-0.42
2024-01-20T20:46:35.954Z,-0.44
2024-01-20T20:49:04.026Z,-0.44
2024-01-20T20:51:31.993Z,-0.49
2024-01-20T20:53:59.780Z,-0.43
2024-01-20T20:56:27.518Z,-0.43
2024-01-20T20:58:55.384Z,-0.43
2024-01-20T21:01:23.184Z,-0.44
2024-01-20T21:03:52.453Z,-0.46
2024-01-20T21:06:20.367Z,-0.41
2024-01-20T21:08:48.189Z,-0.42
2024-01-20T21:11:15.968Z,-0.44
2024-01-20T21:13:43.695Z,-0.48
2024-01-20T21:16:11.608Z,-0.49
2024-01-20T21:18:40.742Z,-0.55
2024-01-20T21:21:10.493Z,-0.48
2024-01-20T21:23:38.261Z,-0.50
2024-01-20T21:26:08.405Z,-0.50
2024-01-20T21:28:36.193Z,-0.52
2024-01-20T21:31:04.386Z,-0.49
2024-01-20T21:33:32.258Z,-0.46
2024-01-20T21:36:00.820Z,-0.45
2024-01-20T21:38:29.960Z,-0.43
2024-01-20T21:40:57.847Z,-0.37
2024-01-20T21:43:25.545Z,-0.35
2024-01-20T21:45:53.329Z,-0.35
2024-01-20T21:48:21.697Z,-0.24
2024-01-20T21:50:49.639Z,-0.23
2024-01-20T21:53:18.706Z,-0.18
2024-01-20T21:55:47.870Z,-0.09
2024-01-20T21:58:15.718Z,-0.15
2024-01-20T22:00:43.873Z,-0.11
2024-01-20T22:03:11.921Z,-0.13
2024-01-20T22:05:39.967Z,-0.10
2024-01-20T22:08:08.921Z,-0.13
2024-01-20T22:10:36.702Z,-0.11
2024-01-20T22:13:06.017Z,-0.13
2024-01-20T22:15:34.039Z,-0.18
2024-01-20T22:18:02.891Z,-0.10
2024-01-20T22:20:32.217Z,-0.14
2024-01-20T22:23:00.199Z,-0.17
2024-01-20T22:25:28.026Z,-0.20
2024-01-20T22:27:56.516Z,-0.23
2024-01-20T22:30:25.847Z,-0.24
2024-01-20T22:32:53.750Z,-0.20
2024-01-20T22:35:21.598Z,-0.24
2024-01-20T22:37:49.733Z,-0.28
2024-01-20T22:40:18.004Z,-0.32
2024-01-20T22:42:45.816Z,-0.36
2024-01-20T22:45:17.402Z,-0.42
2024-01-20T22:47:48.470Z,-0.41
2024-01-20T22:50:16.406Z,-0.39
2024-01-20T22:52:44.185Z,-0.45
2024-01-20T22:55:12.537Z,-0.39
2024-01-20T22:57:40.788Z,-0.42
2024-01-20T23:00:14.033Z,-0.42
2024-01-20T23:02:42.317Z,-0.45
2024-01-20T23:05:11.973Z,-0.46
2024-01-20T23:07:39.077Z,-0.49
2024-01-20T23:10:09.114Z,-0.48
2024-01-20T23:12:37.586Z,-0.52
2024-01-20T23:15:06.538Z,-0.46
2024-01-20T23:17:34.682Z,-0.43
2024-01-20T23:20:03.109Z,-0.45
2024-01-20T23:22:32.547Z,-0.44
2024-01-20T23:25:00.311Z,-0.41
2024-01-20T23:27:28.120Z,-0.39
2024-01-20T23:29:55.851Z,-0.42
2024-01-20T23:32:23.555Z,-0.34
2024-01-20T23:34:51.352Z,-0.32
2024-01-20T23:37:19.088Z,-0.31
2024-01-20T23:39:48.312Z,-0.33
2024-01-20T23:42:16.180Z,-0.27
2024-01-20T23:44:44.011Z,-0.27
2024-01-20T23:47:11.999Z,-0.24
2024-01-20T23:49:39.947Z,-0.25
2024-01-20T23:52:08.127Z,-0.26
2024-01-20T23:54:35.964Z,-0.24
2024-01-20T23:57:05.647Z,-0.14
2024-01-20T23:59:33.471Z,-0.12
